ZSAM

Xiamen Gaoqi International Airport

Xiamen, China
TAF ZSAM 190311Z 1906/2006 05005G10MPS 8000 SCT033 TX27/1906Z TN21/1921Z
Issued Valid From Valid To
Oct-19 @ 03:11 UTC
(6 hours ago)
Oct-19 @ 06:00 UTC
(3 hours ago)
Oct-20 @ 06:00 UTC
(in 21 hours)
Oct-19 @ 06:00 to Oct-20 @ 06:00
TAF ZSAM 190311Z 1906/2006 05005G10MPS 8000 SCT033 TX27/1906Z TN21/1921Z
Wind Visibility Clouds
50° at 10 knots
 Gusting to 19 knots
7,998 meters
  • Scattered at 3,300' AGL
TAF ZSAM 190311Z 1906/2006 05005G10MPS 8000 SCT033 TX27/1906Z TN21/1921Z
Issued Oct-19 @ 03:11 UTC
(6 hours ago)
Valid From Oct-19 @ 06:00 UTC
(3 hours ago)
Valid To Oct-20 @ 06:00 UTC
(in 21 hours)
Oct-19 @ 06:00 - Oct-20 @ 06:00
Wind Visibility
50° at 10 knots
 Gusting to 19 knots
7,998 meters
Clouds
  • Scattered at 3,300' AGL